Time;durP1;ratioP1;P1;durP2;ratioP2;P2;SDS_P1;SDS_P2;PMS_P1;PMS_P2;Temp;Humidity;BMP_temperature;BMP_pressure;BME280_temperature;BME280_humidity;BME280_pressure;Samples;Min_cycle;Max_cycle;Signal;HPM_P1;HPM_P2
2023/07/04 00:01:37;;;;;;;3.92;1.77;;;21.90;85.70;;;;;;5111608;28;20036;-65
2023/07/04 00:04:07;;;;;;;4.90;1.88;;;21.70;82.90;;;;;;5095456;28;20120;-66
2023/07/04 00:06:36;;;;;;;4.57;1.58;;;21.90;85.70;;;;;;5111972;28;20524;-65
2023/07/04 00:09:04;;;;;;;4.85;1.42;;;21.90;86.40;;;;;;5113507;28;20047;-65
2023/07/04 00:11:31;;;;;;;6.05;1.75;;;21.90;85.70;;;;;;5104557;28;20044;-65
2023/07/04 00:13:56;;;;;;;4.05;1.70;;;21.90;85.70;;;;;;5093241;28;20044;-67
2023/07/04 00:16:22;;;;;;;5.55;1.67;;;22.10;85.50;;;;;;5093592;28;20120;-61
2023/07/04 00:18:48;;;;;;;4.38;1.50;;;21.90;85.80;;;;;;5074729;28;20569;-61
2023/07/04 00:21:14;;;;;;;6.05;1.70;;;21.90;85.80;;;;;;5092887;28;20044;-60
2023/07/04 00:23:45;;;;;;;4.35;1.38;;;21.90;86.00;;;;;;5112967;28;20143;-61
2023/07/04 00:26:12;;;;;;;6.53;1.80;;;21.70;85.80;;;;;;5111700;28;20047;-66
2023/07/04 00:28:38;;;;;;;6.28;1.63;;;21.90;86.20;;;;;;5106446;28;20516;-62
2023/07/04 00:31:04;;;;;;;4.28;1.38;;;21.80;86.10;;;;;;5111314;28;20040;-61
2023/07/04 00:33:30;;;;;;;4.82;1.58;;;21.80;85.80;;;;;;5112617;28;20400;-63
2023/07/04 00:36:16;;;;;;;4.47;1.50;;;21.90;86.00;;;;;;5110451;28;20043;-61
2023/07/04 00:38:42;;;;;;;4.47;1.48;;;21.90;86.00;;;;;;5113280;28;20043;-63
2023/07/04 00:41:11;;;;;;;5.43;1.65;;;21.70;85.70;;;;;;5112535;28;20036;-61
2023/07/04 00:44:00;;;;;;;7.55;1.80;;;21.90;85.90;;;;;;5113288;28;20164;-61
2023/07/04 00:46:51;;;;;;;3.70;1.52;;;21.70;85.80;;;;;;5091295;28;20135;-63
2023/07/04 00:49:48;;;;;;;5.05;1.60;;;21.80;85.90;;;;;;5113007;28;20136;-62
2023/07/04 00:52:23;;;;;;;3.78;1.50;;;21.80;85.90;;;;;;5104368;28;20108;-61
2023/07/04 00:55:00;;;;;;;5.15;1.60;;;21.80;85.80;;;;;;5109721;28;20052;-64
2023/07/04 00:57:31;;;;;;;5.07;1.38;;;21.80;85.90;;;;;;5112023;28;20047;-61
2023/07/04 00:59:58;;;;;;;4.75;1.55;;;21.80;85.90;;;;;;5112440;28;20127;-66
2023/07/04 01:02:27;;;;;;;4.65;1.40;;;21.80;85.90;;;;;;5104882;28;20055;-61
2023/07/04 01:04:53;;;;;;;5.25;1.52;;;21.90;86.30;;;;;;5092441;28;20128;-63
2023/07/04 01:07:24;;;;;;;4.70;1.67;;;21.80;86.00;;;;;;5111050;28;20504;-63
2023/07/04 01:10:12;;;;;;;4.20;1.48;;;21.50;82.90;;;;;;5116977;28;20039;-62
2023/07/04 01:12:39;;;;;;;5.28;1.52;;;21.70;85.90;;;;;;5116724;28;20503;-66
2023/07/04 01:15:06;;;;;;;4.43;1.25;;;21.80;86.80;;;;;;5112676;28;20067;-66
2023/07/04 01:17:32;;;;;;;5.03;1.77;;;21.70;86.00;;;;;;5114141;28;20055;-64
2023/07/04 01:19:58;;;;;;;6.30;1.35;;;21.70;86.00;;;;;;5109829;28;20051;-61
2023/07/04 01:22:33;;;;;;;4.05;1.30;;;21.70;86.10;;;;;;5099423;28;20040;-65
2023/07/04 01:25:05;;;;;;;6.93;1.80;;;21.80;86.10;;;;;;5114409;28;20058;-66
2023/07/04 01:27:31;;;;;;;3.70;1.52;;;21.80;86.20;;;;;;5116395;28;20120;-60
2023/07/04 01:30:00;;;;;;;5.80;1.33;;;21.70;86.10;;;;;;5081657;28;20087;-62
2023/07/04 01:32:27;;;;;;;4.78;1.40;;;21.70;86.10;;;;;;5082014;28;20052;-63
2023/07/04 01:34:58;;;;;;;3.53;1.17;;;21.70;86.10;;;;;;5109811;28;20550;-61
2023/07/04 01:37:30;;;;;;;5.10;1.40;;;21.70;86.10;;;;;;5063019;28;20044;-65
2023/07/04 01:39:59;;;;;;;3.65;1.52;;;21.70;86.10;;;;;;5115331;28;20404;-60
2023/07/04 01:42:30;;;;;;;5.45;1.30;;;21.70;86.10;;;;;;5116484;28;20397;-63
2023/07/04 01:45:01;;;;;;;4.70;1.45;;;21.60;86.00;;;;;;5114510;28;20043;-63
2023/07/04 01:47:28;;;;;;;5.45;1.60;;;21.60;83.20;;;;;;5115278;28;20086;-65
2023/07/04 01:49:54;;;;;;;3.88;1.23;;;21.70;86.10;;;;;;5115897;28;20048;-66
2023/07/04 01:52:20;;;;;;;4.20;1.50;;;21.70;86.20;;;;;;5097860;28;20043;-60
2023/07/04 01:54:46;;;;;;;3.97;1.50;;;21.60;86.20;;;;;;5101195;28;20089;-63
2023/07/04 01:57:11;;;;;;;4.95;1.48;;;21.60;86.10;;;;;;5114765;28;20036;-62
2023/07/04 01:59:37;;;;;;;6.03;1.42;;;21.60;86.10;;;;;;5113842;28;20059;-62
2023/07/04 02:02:03;;;;;;;5.65;1.35;;;21.50;86.00;;;;;;5114296;28;20086;-67
2023/07/04 02:04:29;;;;;;;4.93;1.65;;;21.70;86.10;;;;;;5096620;28;20055;-63
2023/07/04 02:06:55;;;;;;;2.95;1.30;;;21.50;86.00;;;;;;5113987;28;20047;-61
2023/07/04 02:09:21;;;;;;;3.65;1.33;;;21.50;86.10;;;;;;5114403;28;20043;-67
2023/07/04 02:11:47;;;;;;;5.47;2.00;;;21.60;86.10;;;;;;5100902;28;20044;-67
2023/07/04 02:14:14;;;;;;;6.05;1.58;;;21.50;86.20;;;;;;5115550;28;20067;-66
2023/07/04 02:16:40;;;;;;;5.05;1.58;;;21.60;86.10;;;;;;5114011;28;20044;-62
2023/07/04 02:19:06;;;;;;;6.07;1.90;;;21.60;86.50;;;;;;5111545;28;20070;-65
2023/07/04 02:21:32;;;;;;;5.63;1.80;;;;;;;;;;5115155;28;20043;-61
2023/07/04 02:23:58;;;;;;;4.18;1.40;;;21.50;86.20;;;;;;5115137;28;20035;-66
2023/07/04 02:26:24;;;;;;;5.70;1.60;;;;;;;;;;5115277;28;20460;-62
2023/07/04 02:28:49;;;;;;;5.25;1.30;;;21.60;86.20;;;;;;5113193;28;20088;-61
2023/07/04 02:31:15;;;;;;;5.07;1.60;;;21.50;86.20;;;;;;5115275;28;20039;-62
2023/07/04 02:33:41;;;;;;;5.05;1.55;;;21.50;86.20;;;;;;5115041;28;20052;-63
2023/07/04 02:36:11;;;;;;;4.32;1.50;;;21.50;86.30;;;;;;5115450;28;20389;-61
2023/07/04 02:38:38;;;;;;;6.88;1.60;;;21.50;85.80;;;;;;5091913;28;20405;-61
2023/07/04 02:41:04;;;;;;;4.40;1.40;;;21.50;86.20;;;;;;5112809;28;20427;-66
2023/07/04 02:43:30;;;;;;;4.63;1.75;;;;;;;;;;5108740;28;20378;-62
2023/07/04 02:45:56;;;;;;;4.18;1.35;;;;;;;;;;5114682;28;20672;-62
2023/07/04 02:48:24;;;;;;;5.85;1.58;;;21.60;86.30;;;;;;5114768;28;20044;-61
2023/07/04 02:50:50;;;;;;;4.63;1.25;;;;;;;;;;5114888;28;20055;-63
2023/07/04 02:53:21;;;;;;;4.00;1.48;;;;;;;;;;5096105;28;20050;-63
2023/07/04 02:55:48;;;;;;;4.95;1.42;;;21.50;86.20;;;;;;5114865;28;20082;-60
2023/07/04 02:58:14;;;;;;;4.68;1.70;;;21.50;86.20;;;;;;5108422;28;20048;-62
2023/07/04 03:00:40;;;;;;;4.68;1.30;;;21.50;86.20;;;;;;5112965;28;20039;-66
2023/07/04 03:03:06;;;;;;;5.65;1.45;;;21.40;86.10;;;;;;5100047;28;20047;-64
2023/07/04 03:05:32;;;;;;;3.60;1.48;;;21.50;86.20;;;;;;5112971;28;20105;-61
2023/07/04 03:07:58;;;;;;;5.35;1.50;;;21.50;86.20;;;;;;5113168;28;20051;-60
2023/07/04 03:10:23;;;;;;;5.72;1.30;;;21.50;86.40;;;;;;5114764;28;20044;-62
2023/07/04 03:12:49;;;;;;;3.72;1.55;;;21.50;86.20;;;;;;5100606;28;20040;-62
2023/07/04 03:15:15;;;;;;;4.28;1.77;;;21.50;86.30;;;;;;5112104;28;20130;-62
2023/07/04 03:17:41;;;;;;;6.65;1.70;;;21.40;86.20;;;;;;5112076;28;20289;-64
2023/07/04 03:20:10;;;;;;;4.75;1.55;;;21.60;86.30;;;;;;5113225;28;20048;-61
2023/07/04 03:22:37;;;;;;;4.10;1.70;;;21.50;86.30;;;;;;5113287;28;20047;-61
2023/07/04 03:25:03;;;;;;;5.13;1.67;;;21.50;86.20;;;;;;5106968;28;20088;-61
2023/07/04 03:27:29;;;;;;;5.53;1.92;;;21.50;86.30;;;;;;5113176;28;20047;-60
2023/07/04 03:29:54;;;;;;;5.15;1.50;;;21.50;86.30;;;;;;5113489;28;20044;-67
2023/07/04 03:32:20;;;;;;;5.43;1.60;;;21.50;86.30;;;;;;5094793;28;20051;-64
2023/07/04 03:34:46;;;;;;;6.53;2.20;;;21.50;86.30;;;;;;5111263;28;20065;-63
2023/07/04 03:37:12;;;;;;;5.78;1.70;;;21.50;86.10;;;;;;5095994;28;20049;-62
2023/07/04 03:39:38;;;;;;;4.75;1.70;;;21.50;86.20;;;;;;5114167;28;20490;-61
2023/07/04 03:42:04;;;;;;;5.97;1.63;;;21.40;86.30;;;;;;5114136;28;20044;-64
2023/07/04 03:44:30;;;;;;;8.52;2.13;;;21.50;86.30;;;;;;5112034;28;20493;-62
2023/07/04 03:46:56;;;;;;;5.88;1.80;;;21.40;86.30;;;;;;5112293;28;20047;-61
2023/07/04 03:49:22;;;;;;;6.03;2.08;;;21.60;86.40;;;;;;5113909;28;20100;-61
2023/07/04 03:51:47;;;;;;;6.88;1.85;;;21.50;82.70;;;;;;5110787;28;20413;-62
2023/07/04 03:54:13;;;;;;;6.85;1.67;;;21.50;86.30;;;;;;5099923;28;20055;-62
2023/07/04 03:56:39;;;;;;;4.53;1.83;;;21.60;86.30;;;;;;5111860;28;20126;-62
2023/07/04 03:59:05;;;;;;;6.57;1.92;;;21.50;86.30;;;;;;5113521;28;20117;-61
2023/07/04 04:01:30;;;;;;;6.35;1.80;;;21.50;86.20;;;;;;5113464;28;20093;-63
2023/07/04 04:03:56;;;;;;;6.82;2.00;;;21.50;86.30;;;;;;5094425;28;20040;-62
2023/07/04 04:06:22;;;;;;;4.53;1.63;;;21.50;86.20;;;;;;5111322;28;20071;-61
2023/07/04 04:08:47;;;;;;;4.50;1.90;;;21.60;86.20;;;;;;5109387;28;20047;-62
2023/07/04 04:11:13;;;;;;;4.95;1.85;;;21.50;86.10;;;;;;5074690;28;20040;-62
2023/07/04 04:13:39;;;;;;;5.80;1.90;;;21.60;86.10;;;;;;5111362;28;20160;-62
2023/07/04 04:16:05;;;;;;;5.95;2.30;;;21.70;86.30;;;;;;5112483;28;20044;-64
2023/07/04 04:18:31;;;;;;;5.28;1.70;;;21.60;86.50;;;;;;5113519;28;20050;-60
2023/07/04 04:20:57;;;;;;;3.50;1.63;;;21.60;86.10;;;;;;5110796;28;20460;-60
2023/07/04 04:23:22;;;;;;;6.53;2.17;;;21.60;86.30;;;;;;5112429;28;20385;-61
2023/07/04 04:25:48;;;;;;;5.30;1.70;;;21.70;86.20;;;;;;5108407;28;20051;-62
2023/07/04 04:28:14;;;;;;;5.68;1.83;;;21.80;83.60;;;;;;5092710;28;20142;-61
2023/07/04 04:30:40;;;;;;;6.00;1.80;;;21.80;86.30;;;;;;5112211;28;20097;-62
2023/07/04 04:33:06;;;;;;;5.43;2.10;;;21.70;86.30;;;;;;5112879;28;20092;-63
2023/07/04 04:35:32;;;;;;;5.68;2.13;;;21.80;86.20;;;;;;5106509;28;20050;-61
2023/07/04 04:37:58;;;;;;;4.20;1.70;;;21.70;86.10;;;;;;5101162;28;20028;-61
2023/07/04 04:40:24;;;;;;;5.47;1.60;;;21.80;86.10;;;;;;5110614;28;20040;-63
2023/07/04 04:42:55;;;;;;;6.40;1.73;;;21.80;86.10;;;;;;5109142;28;20055;-64
2023/07/04 04:45:21;;;;;;;5.53;2.10;;;21.90;86.10;;;;;;5092571;28;20509;-67
2023/07/04 04:47:52;;;;;;;4.68;1.70;;;21.90;86.10;;;;;;5105799;28;20071;-61
2023/07/04 04:50:25;;;;;;;5.35;1.80;;;21.90;86.00;;;;;;5109564;28;20152;-61
2023/07/04 04:52:51;;;;;;;6.65;2.00;;;22.10;86.00;;;;;;5100772;28;20131;-66
2023/07/04 04:55:17;;;;;;;5.30;1.80;;;22.00;85.90;;;;;;5112808;28;20047;-62
2023/07/04 04:57:42;;;;;;;6.82;1.95;;;22.10;86.20;;;;;;5113124;28;20046;-62
2023/07/04 05:00:10;;;;;;;5.32;1.90;;;22.10;85.90;;;;;;5109242;28;20480;-62
2023/07/04 05:02:36;;;;;;;6.25;1.90;;;22.20;85.60;;;;;;5110789;28;20153;-66
2023/07/04 05:05:01;;;;;;;7.28;2.35;;;22.20;85.80;;;;;;5112747;28;20123;-63
2023/07/04 05:07:28;;;;;;;5.13;1.63;;;22.30;85.40;;;;;;5112746;28;20048;-62
2023/07/04 05:09:54;;;;;;;6.55;2.00;;;22.20;85.40;;;;;;5109848;28;20435;-61
2023/07/04 05:12:20;;;;;;;4.97;1.70;;;22.20;86.10;;;;;;5111350;28;20397;-67
2023/07/04 05:14:46;;;;;;;3.80;1.65;;;22.10;82.60;;;;;;5112950;28;20054;-62
2023/07/04 05:17:11;;;;;;;6.70;1.95;;;22.10;85.20;;;;;;5104711;28;20367;-61
2023/07/04 05:19:37;;;;;;;4.93;1.90;;;22.30;85.30;;;;;;5111552;28;20046;-61
2023/07/04 05:22:03;;;;;;;4.43;1.83;;;22.30;85.30;;;;;;5111128;28;20103;-61
2023/07/04 05:24:30;;;;;;;4.00;1.58;;;22.10;85.40;;;;;;5112899;28;20048;-62
2023/07/04 05:26:56;;;;;;;6.15;1.98;;;22.30;85.30;;;;;;5112518;28;20081;-63
2023/07/04 05:29:22;;;;;;;7.07;2.05;;;22.30;85.30;;;;;;5112468;28;20047;-61
2023/07/04 05:31:48;;;;;;;6.22;1.90;;;22.30;85.30;;;;;;5105795;28;20035;-61
2023/07/04 05:34:14;;;;;;;5.18;1.60;;;22.30;85.40;;;;;;5105650;28;20048;-62
2023/07/04 05:36:40;;;;;;;5.82;2.20;;;22.30;85.40;;;;;;5101953;28;20043;-61
2023/07/04 05:39:08;;;;;;;6.15;1.98;;;22.20;85.40;;;;;;5112707;28;20508;-64
2023/07/04 05:41:35;;;;;;;5.80;2.00;;;22.20;85.30;;;;;;5109976;28;20036;-62
2023/07/04 05:44:05;;;;;;;5.13;2.00;;;22.30;83.10;;;;;;5112372;28;20474;-62
2023/07/04 05:46:31;;;;;;;6.68;1.77;;;22.20;85.40;;;;;;5112669;28;20141;-64
2023/07/04 05:48:58;;;;;;;4.32;1.95;;;22.20;85.40;;;;;;5112508;28;20546;-62
2023/07/04 05:51:24;;;;;;;5.82;1.83;;;22.30;85.40;;;;;;5104198;28;20051;-64
2023/07/04 05:53:51;;;;;;;6.97;2.13;;;22.10;85.40;;;;;;5104535;28;20044;-61
2023/07/04 05:56:18;;;;;;;5.13;1.90;;;22.30;85.50;;;;;;5114616;28;20119;-64
2023/07/04 05:58:47;;;;;;;6.70;2.05;;;22.30;83.00;;;;;;5116210;28;20043;-60
2023/07/04 06:01:29;;;;;;;4.53;1.90;;;22.40;85.50;;;;;;5113100;28;20981;-62
2023/07/04 06:03:55;;;;;;;6.68;1.90;;;22.30;85.40;;;;;;5115457;28;20039;-62
2023/07/04 06:06:21;;;;;;;5.47;2.05;;;22.40;85.10;;;;;;5097543;28;20096;-62
2023/07/04 06:08:47;;;;;;;4.57;1.75;;;22.30;85.10;;;;;;5104318;28;20467;-64
2023/07/04 06:11:14;;;;;;;5.32;1.95;;;;;;;;;;5099857;28;20040;-66
2023/07/04 06:13:40;;;;;;;6.80;2.22;;;22.50;85.00;;;;;;5112294;28;20485;-65
2023/07/04 06:16:05;;;;;;;8.65;2.00;;;22.50;85.20;;;;;;5115864;28;20036;-65
2023/07/04 06:18:31;;;;;;;6.72;2.40;;;22.50;82.40;;;;;;5115417;28;20048;-66
2023/07/04 06:21:11;;;;;;;7.10;2.55;;;22.50;85.00;;;;;;5113936;28;20039;-65
2023/07/04 06:23:37;;;;;;;6.53;2.20;;;22.50;85.50;;;;;;5111608;28;20475;-65
2023/07/04 06:26:03;;;;;;;4.68;2.15;;;22.50;85.90;;;;;;5100900;28;20036;-66
2023/07/04 06:28:29;;;;;;;7.35;2.30;;;22.50;85.20;;;;;;5098366;28;20412;-65
2023/07/04 06:30:55;;;;;;;8.27;2.92;;;22.50;85.10;;;;;;5114053;28;20039;-65
2023/07/04 06:33:21;;;;;;;7.78;2.47;;;22.50;82.50;;;;;;5110892;28;20048;-65
2023/07/04 06:35:47;;;;;;;6.68;2.40;;;22.60;85.10;;;;;;5115132;28;20130;-65
2023/07/04 06:38:12;;;;;;;7.57;2.72;;;22.60;85.00;;;;;;5115068;28;20046;-65
2023/07/04 06:40:39;;;;;;;6.22;2.20;;;22.50;85.00;;;;;;5111274;28;20052;-66
2023/07/04 06:43:05;;;;;;;8.00;2.45;;;22.60;84.90;;;;;;5105328;28;20039;-66
2023/07/04 06:45:31;;;;;;;7.07;2.65;;;22.60;84.90;;;;;;5114958;28;20550;-62
2023/07/04 06:47:58;;;;;;;8.82;2.78;;;22.80;85.00;;;;;;5115207;28;20036;-61
2023/07/04 06:50:24;;;;;;;5.32;2.10;;;23.00;85.70;;;;;;5114895;28;20481;-61
2023/07/04 06:52:49;;;;;;;7.30;2.47;;;22.60;84.80;;;;;;5112125;28;20052;-62
2023/07/04 06:55:15;;;;;;;7.00;2.55;;;22.90;85.00;;;;;;5114774;28;20431;-62
2023/07/04 06:57:42;;;;;;;7.20;2.60;;;22.80;82.40;;;;;;5096493;28;20051;-65
2023/07/04 07:00:08;;;;;;;6.15;2.38;;;22.70;82.20;;;;;;5100266;28;20040;-62
2023/07/04 07:02:34;;;;;;;6.53;2.35;;;22.90;85.60;;;;;;5094319;28;20036;-62
2023/07/04 07:05:00;;;;;;;7.03;2.25;;;22.90;84.70;;;;;;5109728;28;20055;-63
2023/07/04 07:07:26;;;;;;;7.43;2.30;;;22.90;82.10;;;;;;5114905;28;20114;-61
2023/07/04 07:09:51;;;;;;;6.07;2.53;;;23.00;82.00;;;;;;5114478;28;20511;-63
2023/07/04 07:12:17;;;;;;;6.78;2.67;;;22.90;84.40;;;;;;5096488;28;20055;-61
2023/07/04 07:14:45;;;;;;;6.32;2.22;;;23.10;81.90;;;;;;5108001;28;20522;-62
2023/07/04 07:17:11;;;;;;;6.20;2.03;;;23.10;84.60;;;;;;5108759;28;20048;-61
2023/07/04 07:19:37;;;;;;;7.00;2.50;;;22.90;81.70;;;;;;5114138;28;20043;-61
2023/07/04 07:22:03;;;;;;;5.88;2.55;;;22.90;84.50;;;;;;5114492;28;20044;-63
2023/07/04 07:24:29;;;;;;;5.43;2.20;;;22.90;84.50;;;;;;5112175;28;20138;-61
2023/07/04 07:26:56;;;;;;;7.00;2.47;;;23.20;81.90;;;;;;5111846;28;20047;-61
2023/07/04 07:29:22;;;;;;;6.05;1.95;;;23.40;82.00;;;;;;5113871;28;20082;-63
2023/07/04 07:31:49;;;;;;;5.07;2.20;;;23.40;84.10;;;;;;5114167;28;20071;-66
2023/07/04 07:34:19;;;;;;;6.55;2.00;;;23.20;83.90;;;;;;5106564;28;20055;-64
2023/07/04 07:36:45;;;;;;;5.40;1.90;;;23.20;83.80;;;;;;5110780;28;20035;-64
2023/07/04 07:39:13;;;;;;;5.38;1.95;;;23.10;81.40;;;;;;5114193;28;20116;-64
2023/07/04 07:41:44;;;;;;;4.10;1.77;;;23.30;81.50;;;;;;5113470;28;20427;-62
2023/07/04 07:44:09;;;;;;;5.68;2.05;;;23.50;81.80;;;;;;5109303;28;20366;-60
2023/07/04 07:46:36;;;;;;;7.65;2.13;;;23.50;83.70;;;;;;5110886;28;20069;-69
2023/07/04 07:49:02;;;;;;;6.13;2.10;;;23.20;81.10;;;;;;5111478;28;20507;-65
2023/07/04 07:51:29;;;;;;;5.47;2.00;;;23.50;81.20;;;;;;5106579;28;20112;-60
2023/07/04 07:53:55;;;;;;;4.93;1.77;;;23.40;80.90;;;;;;5113236;28;20031;-63
2023/07/04 07:56:22;;;;;;;5.60;2.00;;;23.50;84.00;;;;;;5111446;28;20434;-63
2023/07/04 07:58:48;;;;;;;5.32;1.88;;;23.30;81.20;;;;;;5112241;28;20039;-62
2023/07/04 08:01:29;;;;;;;6.22;1.95;;;23.50;81.70;;;;;;5113248;28;20077;-66
2023/07/04 08:03:55;;;;;;;3.88;1.55;;;23.50;83.70;;;;;;5112531;28;20044;-67
2023/07/04 08:06:23;;;;;;;4.70;1.90;;;23.50;83.70;;;;;;5105923;28;20733;-65
2023/07/04 08:08:49;;;;;;;6.18;1.90;;;23.60;81.30;;;;;;5112319;28;20122;-65
2023/07/04 08:11:15;;;;;;;5.25;1.98;;;23.60;83.50;;;;;;5110196;28;20075;-61
2023/07/04 08:13:41;;;;;;;4.13;1.75;;;23.70;83.80;;;;;;5113343;28;20489;-68
2023/07/04 08:16:07;;;;;;;6.63;1.80;;;23.70;80.80;;;;;;5112471;28;20044;-63
2023/07/04 08:18:33;;;;;;;4.32;1.60;;;23.40;80.60;;;;;;5111801;28;20051;-64
2023/07/04 08:21:00;;;;;;;5.15;1.67;;;23.50;80.60;;;;;;5112709;28;20084;-65
2023/07/04 08:23:26;;;;;;;4.38;1.95;;;23.50;80.90;;;;;;5112954;28;20077;-70
2023/07/04 08:25:52;;;;;;;5.75;2.00;;;23.70;83.90;;;;;;5105604;28;20386;-64
2023/07/04 08:28:18;;;;;;;5.68;1.60;;;23.60;83.10;;;;;;5111436;28;20043;-65
2023/07/04 08:30:45;;;;;;;4.00;1.60;;;23.70;80.50;;;;;;5111126;28;20552;-64
2023/07/04 08:33:12;;;;;;;4.50;1.55;;;23.80;80.70;;;;;;5111914;28;20059;-65
2023/07/04 08:35:38;;;;;;;3.88;1.65;;;24.20;81.00;;;;;;5113036;28;20054;-61
2023/07/04 08:38:03;;;;;;;4.35;1.40;;;23.60;82.90;;;;;;5110744;28;20035;-64
2023/07/04 08:40:29;;;;;;;4.38;1.60;;;23.80;80.40;;;;;;5109602;28;20392;-62
2023/07/04 08:42:55;;;;;;;5.93;1.63;;;23.60;83.30;;;;;;5084976;28;20481;-63
2023/07/04 08:45:24;;;;;;;4.47;1.70;;;23.70;80.40;;;;;;5112909;28;20085;-61
2023/07/04 08:47:51;;;;;;;3.63;1.60;;;23.90;80.70;;;;;;5079063;28;20056;-62
2023/07/04 08:50:31;;;;;;;5.47;2.13;;;23.60;80.50;;;;;;5091605;28;20044;-61
2023/07/04 08:53:07;;;;;;;2.78;1.30;;;23.50;83.70;;;;;;5088782;28;20044;-61
2023/07/04 08:55:34;;;;;;;4.93;1.48;;;23.80;80.90;;;;;;5090832;28;20040;-61
2023/07/04 08:58:01;;;;;;;5.28;1.55;;;23.70;83.70;;;;;;5085348;28;20048;-60
2023/07/04 09:00:28;;;;;;;5.00;1.60;;;23.60;83.70;;;;;;5054706;28;20075;-63
2023/07/04 09:03:00;;;;;;;5.40;1.60;;;23.60;80.50;;;;;;5083757;28;20058;-61
2023/07/04 09:05:55;;;;;;;5.18;1.70;;;23.80;80.60;;;;;;5090793;28;20051;-62
2023/07/04 09:09:01;;;;;;;4.40;1.90;;;23.50;79.40;;;;;;5073652;28;20052;-61
2023/07/04 09:11:27;;;;;;;4.93;1.63;;;23.50;83.20;;;;;;5006377;28;20050;-62
2023/07/04 09:13:58;;;;;;;3.97;1.63;;;23.60;80.50;;;;;;4993677;28;20042;-61
2023/07/04 09:16:45;;;;;;;4.90;1.80;;;23.50;80.90;;;;;;5008291;28;20527;-62
2023/07/04 09:19:12;;;;;;;5.93;1.60;;;23.40;83.10;;;;;;4997077;28;20046;-63
2023/07/04 09:21:37;;;;;;;3.90;1.40;;;23.50;80.50;;;;;;5009303;28;20128;-62
2023/07/04 09:24:04;;;;;;;4.80;1.70;;;23.40;80.50;;;;;;5009758;28;20073;-66
2023/07/04 09:26:44;;;;;;;5.75;1.70;;;23.80;83.90;;;;;;5010173;28;20467;-61
2023/07/04 09:29:10;;;;;;;4.28;1.67;;;23.50;83.30;;;;;;5009943;28;20065;-62
2023/07/04 09:31:40;;;;;;;6.72;1.67;;;23.50;83.20;;;;;;5012093;28;20050;-62
2023/07/04 09:34:18;;;;;;;3.88;1.60;;;23.50;80.90;;;;;;4997744;28;20136;-71
2023/07/04 09:36:43;;;;;;;5.43;1.60;;;23.90;81.30;;;;;;5009649;28;20058;-62
2023/07/04 09:39:09;;;;;;;5.28;1.55;;;23.70;80.40;;;;;;4996337;28;20504;-70
2023/07/04 09:41:39;;;;;;;4.78;1.85;;;23.70;83.60;;;;;;5032445;28;20521;-69
2023/07/04 09:44:14;;;;;;;4.45;1.65;;;23.80;79.30;;;;;;5093874;28;20481;-63
2023/07/04 09:46:46;;;;;;;5.50;2.22;;;23.80;81.20;;;;;;5095991;28;20485;-67
2023/07/04 09:49:32;;;;;;;4.35;1.23;;;23.60;80.60;;;;;;5075149;28;20082;-62
2023/07/04 09:52:18;;;;;;;4.72;1.77;;;23.80;79.30;;;;;;5094498;28;20051;-61
2023/07/04 09:54:44;;;;;;;3.97;1.65;;;23.90;82.90;;;;;;5084569;28;20056;-69
2023/07/04 09:57:27;;;;;;;6.65;1.88;;;23.90;80.00;;;;;;5094794;28;20051;-62
2023/07/04 09:59:53;;;;;;;5.28;1.85;;;24.00;80.50;;;;;;5070169;28;20056;-63
2023/07/04 10:02:29;;;;;;;4.25;1.63;;;24.00;80.00;;;;;;5095570;28;20043;-65
2023/07/04 10:04:55;;;;;;;4.05;1.88;;;24.10;78.40;;;;;;5093696;28;20043;-68
2023/07/04 10:07:24;;;;;;;4.47;1.63;;;24.10;79.60;;;;;;5088458;28;20169;-68
2023/07/04 10:09:51;;;;;;;7.25;2.08;;;23.80;79.60;;;;;;5074714;28;20058;-62
2023/07/04 10:12:17;;;;;;;6.45;2.03;;;23.90;82.50;;;;;;5077349;28;20208;-62
2023/07/04 10:14:52;;;;;;;4.80;1.80;;;23.80;79.60;;;;;;5094089;28;20097;-68
2023/07/04 10:17:32;;;;;;;4.20;1.80;;;23.60;82.20;;;;;;5091985;28;20045;-61
2023/07/04 10:20:12;;;;;;;5.22;1.85;;;24.10;79.90;;;;;;5095253;28;20048;-61
2023/07/04 10:22:46;;;;;;;5.55;2.08;;;23.90;79.70;;;;;;5092213;28;20482;-62
2023/07/04 10:25:16;;;;;;;4.28;1.90;;;24.10;79.60;;;;;;5074645;28;20057;-67
2023/07/04 10:27:45;;;;;;;5.97;2.10;;;24.00;79.40;;;;;;5089575;28;20040;-72
2023/07/04 10:30:16;;;;;;;5.70;2.00;;;23.70;79.30;;;;;;5067544;28;20498;-61
2023/07/04 10:32:47;;;;;;;7.40;2.28;;;23.90;79.50;;;;;;5053180;28;20057;-61
2023/07/04 10:35:15;;;;;;;5.53;2.40;;;23.90;82.20;;;;;;5067529;28;20059;-67
2023/07/04 10:37:42;;;;;;;7.13;2.17;;;24.00;79.40;;;;;;5042971;28;20421;-69
2023/07/04 10:40:14;;;;;;;6.55;2.05;;;24.00;79.30;;;;;;5061020;28;20032;-69
2023/07/04 10:43:01;;;;;;;7.20;2.22;;;23.80;81.40;;;;;;5089648;28;20080;-73
2023/07/04 10:45:27;;;;;;;5.20;1.80;;;23.90;81.70;;;;;;5087711;28;20048;-62
2023/07/04 10:47:55;;;;;;;9.02;2.10;;;23.90;78.80;;;;;;5071801;28;20795;-67
2023/07/04 10:50:26;;;;;;;6.97;1.90;;;24.10;79.20;;;;;;5054246;28;20044;-65
2023/07/04 10:52:52;;;;;;;6.30;1.90;;;23.80;77.40;;;;;;5067824;28;20041;-65
2023/07/04 10:55:21;;;;;;;5.00;1.75;;;23.90;78.70;;;;;;5072178;28;20058;-68
2023/07/04 10:58:03;;;;;;;5.28;1.73;;;23.80;78.20;;;;;;5079473;28;20119;-62
2023/07/04 11:00:52;;;;;;;5.88;1.80;;;23.90;78.90;;;;;;5073259;28;20055;-61
2023/07/04 11:03:26;;;;;;;5.05;1.77;;;24.10;81.70;;;;;;5071807;28;20071;-69
2023/07/04 11:05:53;;;;;;;5.10;2.20;;;23.90;78.90;;;;;;5088366;28;20127;-70
2023/07/04 11:08:21;;;;;;;4.53;1.77;;;24.10;79.00;;;;;;5073855;28;20072;-70
2023/07/04 11:10:57;;;;;;;6.05;1.98;;;23.90;79.00;;;;;;5070507;28;20802;-72
2023/07/04 11:13:26;;;;;;;6.05;1.88;;;24.00;79.00;;;;;;5088035;28;20045;-63
2023/07/04 11:15:56;;;;;;;5.40;1.95;;;24.00;82.10;;;;;;5054039;28;20462;-68
2023/07/04 11:18:26;;;;;;;5.10;1.98;;;24.00;78.90;;;;;;5064153;28;20045;-63
2023/07/04 11:21:10;;;;;;;5.05;2.13;;;23.80;78.80;;;;;;5072678;28;20048;-62
2023/07/04 11:23:56;;;;;;;6.28;2.05;;;24.10;77.50;;;;;;5056425;28;20040;-64
2023/07/04 11:27:00;;;;;;;6.97;2.00;;;24.00;77.60;;;;;;5053603;28;20044;-61
2023/07/04 11:29:27;;;;;;;6.57;1.75;;;24.00;77.70;;;;;;5055850;28;20056;-65
2023/07/04 11:32:03;;;;;;;5.72;2.10;;;23.90;78.50;;;;;;5072851;28;20055;-64
2023/07/04 11:34:45;;;;;;;6.07;1.85;;;24.30;79.40;;;;;;5092204;28;20097;-66
2023/07/04 11:37:15;;;;;;;5.45;1.75;;;23.90;78.50;;;;;;5075513;28;20595;-69
2023/07/04 11:39:41;;;;;;;7.38;1.98;;;23.70;78.50;;;;;;5089483;28;20041;-62
2023/07/04 11:42:20;;;;;;;5.95;2.13;;;24.10;78.40;;;;;;5065073;28;20056;-64
2023/07/04 11:45:05;;;;;;;6.43;1.98;;;24.20;79.00;;;;;;5087165;28;20040;-61
2023/07/04 11:47:41;;;;;;;6.28;2.03;;;24.20;79.00;;;;;;5085267;28;20044;-62
2023/07/04 11:50:18;;;;;;;5.60;2.25;;;23.90;81.10;;;;;;5083456;28;20044;-62
2023/07/04 11:52:51;;;;;;;7.38;2.08;;;23.90;78.70;;;;;;5088447;28;20044;-61
2023/07/04 11:55:18;;;;;;;6.22;2.00;;;23.80;78.80;;;;;;5091102;28;20086;-65
2023/07/04 11:58:06;;;;;;;7.13;2.08;;;24.20;78.80;;;;;;5084567;28;20394;-65
2023/07/04 12:00:38;;;;;;;14.05;3.00;;;24.00;77.30;;;;;;5088816;28;20048;-67
2023/07/04 12:03:16;;;;;;;12.02;2.47;;;24.10;77.80;;;;;;5091721;28;20119;-61
2023/07/04 12:05:42;;;;;;;8.98;2.17;;;23.90;77.10;;;;;;5081175;28;20101;-67
2023/07/04 12:08:10;;;;;;;9.18;2.80;;;24.10;77.20;;;;;;5093389;28;20063;-65
2023/07/04 12:10:36;;;;;;;8.07;2.50;;;23.90;76.50;;;;;;5087919;28;20148;-66
2023/07/04 12:13:02;;;;;;;7.78;2.50;;;23.90;78.10;;;;;;5091076;28;20039;-62
2023/07/04 12:15:32;;;;;;;10.90;2.30;;;24.00;75.70;;;;;;5089392;28;20039;-68
2023/07/04 12:17:59;;;;;;;8.73;2.30;;;23.80;75.60;;;;;;5088371;28;20047;-69
2023/07/04 12:20:27;;;;;;;6.88;2.00;;;23.80;78.10;;;;;;5088858;28;20434;-62
2023/07/04 12:22:55;;;;;;;8.18;2.35;;;23.90;75.80;;;;;;5087196;28;20044;-62
2023/07/04 12:25:32;;;;;;;7.95;3.00;;;23.90;77.90;;;;;;5089019;28;20052;-65
2023/07/04 12:28:02;;;;;;;8.45;2.42;;;23.70;75.70;;;;;;5089786;28;20047;-67
2023/07/04 12:30:28;;;;;;;8.95;2.75;;;23.90;75.30;;;;;;5087451;28;20062;-65
2023/07/04 12:32:53;;;;;;;7.80;2.70;;;23.80;75.20;;;;;;5089887;28;20138;-62
2023/07/04 12:35:32;;;;;;;9.73;2.60;;;23.70;75.00;;;;;;5090351;28;20043;-62
2023/07/04 12:37:58;;;;;;;12.23;2.60;;;23.80;75.80;;;;;;5074828;28;20058;-68
2023/07/04 12:40:29;;;;;;;10.18;2.80;;;23.50;78.10;;;;;;5082058;28;20537;-65
2023/07/04 12:43:00;;;;;;;10.48;2.97;;;23.90;75.60;;;;;;5061599;28;20390;-68
2023/07/04 12:45:26;;;;;;;11.35;3.17;;;23.50;75.10;;;;;;5089914;28;20438;-67
2023/07/04 12:47:58;;;;;;;7.97;2.70;;;23.80;77.30;;;;;;5086741;28;20156;-68
2023/07/04 12:50:23;;;;;;;9.13;2.78;;;23.60;73.40;;;;;;5089167;28;20139;-68
2023/07/04 12:52:49;;;;;;;7.25;2.95;;;23.60;74.30;;;;;;5091357;28;20422;-65
2023/07/04 12:55:27;;;;;;;10.23;2.50;;;23.70;77.20;;;;;;5091648;28;20044;-68
2023/07/04 12:57:54;;;;;;;7.38;2.33;;;23.50;76.70;;;;;;5087544;28;20489;-68